Sloman Herakles — V2FY4 — position and weather

sailwx.info

Track history (hours):
 
Tides and Currents Weather Stations Pressure Air Temp Water Temp Dewpoint Dewpoint Depression Visibility Wind Speed Wind Dir Waves Ship Positions

Sloman Herakles

Last reported at 2016-Jun-30 11:27 UTC. Time now 2016-Jul-01 09:47 UTC.
Position N 39°33' W 009°57'.

Length 145 m; draft 9.6 m.

Type: Tanker. MMSI: 305851000.

Date/timePositionNaut miles runAvg speedWind from/ knotsBaromVisibWave heightAir tempDewpointWater temp
2016-Jun-30 11:27N 39°33' W 009°57'1112.1
2016-Jun-30 10:33N 39°23' W 009°57'1212.0
2016-Jun-30 09:33N 39°11' W 009°56'1312.3
2016-Jun-30 08:29N 38°58' W 009°56'1112.3
2016-Jun-30 07:33N 38°46' W 009°57'1211.8
2016-Jun-30 06:32N 38°34' W 009°54'1111.2
2016-Jun-30 05:33N 38°24' W 009°51'1111.1
2016-Jun-30 04:33N 38°13' W 009°48'1111.4
2016-Jun-30 03:33N 38°02' W 009°44'1311.6
2016-Jun-30 02:27N 37°49' W 009°41'1111.6
2016-Jun-30 01:33N 37°39' W 009°38'1211.5
2016-Jun-30 00:30N 37°27' W 009°34'1111.2
2016-Jun-29 23:29N 37°16' W 009°31'1210.8
2016-Jun-29 22:20N 37°04' W 009°28'3810.0
2016-Jun-29 18:33N 36°37' W 008°55'1311.3
2016-Jun-29 17:22N 36°34' W 008°39'1011.6
2016-Jun-29 16:32N 36°31' W 008°27'14712.3
2016-Jun-29 04:33N 35°60' W 005°28'8 8.5
2016-Jun-29 03:33N 36°07' W 005°24'2 1.6
2016-Jun-29 02:24N 36°09' W 005°22'0 0.0
2016-Jun-29 01:30N 36°09' W 005°22'0 0.0
2016-Jun-29 00:33N 36°09' W 005°22'0 0.0
2016-Jun-28 23:33N 36°09' W 005°22'0 0.0
2016-Jun-28 22:27N 36°09' W 005°22'0 0.0
2016-Jun-28 21:33N 36°09' W 005°22'0 0.1
2016-Jun-28 19:30N 36°09' W 005°22'0 0.1
2016-Jun-28 18:25N 36°09' W 005°22'4 4.3
2016-Jun-28 17:33N 36°05' W 005°21'5 5.0
2016-Jun-28 16:33N 36°05' W 005°15'21311.9
2016-Jun-27 22:34N 37°13' W 001°02'1313.0
2016-Jun-27 21:33N 37°22' W 000°50'1612.8
2016-Jun-27 20:20N 37°33' W 000°36'1012.5
2016-Jun-27 19:33N 37°40' W 000°28'1212.0
2016-Jun-27 18:33N 37°50' W 000°20'1212.1
2016-Jun-27 17:33N 38°01' W 000°12'1212.3
2016-Jun-27 16:33N 38°11' W 000°03'1212.3
2016-Jun-27 15:33N 38°21' E 000°06'9112.6
2016-Jun-27 08:21N 39°42' E 000°60'1113.1
2016-Jun-27 07:32N 39°51' E 001°06'1313.2
2016-Jun-27 06:33N 40°03' E 001°13'1313.5
2016-Jun-27 05:33N 40°15' E 001°21'1413.4
2016-Jun-27 04:32N 40°28' E 001°28'1313.0
2016-Jun-27 03:33N 40°40' E 001°33'30 0.7
2016-Jun-25 11:08N 41°05' E 001°12'2 2.3
2016-Jun-25 10:28N 41°04' E 001°13'1011.2
2016-Jun-25 09:32N 40°56' E 001°21'1211.8
2016-Jun-25 08:33N 40°47' E 001°31'1110.9
2016-Jun-25 07:33N 40°36' E 001°33'1212.5
2016-Jun-25 06:33N 40°24' E 001°27'1212.2
2016-Jun-25 05:33N 40°13' E 001°20'1212.3
2016-Jun-25 04:34N 40°02' E 001°14'1212.0
2016-Jun-25 03:32N 39°51' E 001°07'2512.1
2016-Jun-25 01:29N 39°28' E 000°55'1112.2
2016-Jun-25 00:33N 39°18' E 000°48'1412.4
2016-Jun-24 23:25N 39°05' E 000°41'1112.3
2016-Jun-24 22:33N 38°55' E 000°34'1312.6
2016-Jun-24 21:31N 38°43' E 000°28'1212.8
2016-Jun-24 20:33N 38°33' E 000°20'1312.8
2016-Jun-24 19:33N 38°22' E 000°11'1313.2
2016-Jun-24 18:33N 38°11' E 000°02'1312.7
2016-Jun-24 17:33N 38°01' W 000°07'1313.3
2016-Jun-24 16:34N 37°50' W 000°17'1313.0
2016-Jun-24 15:34N 37°39' W 000°26'1312.5
2016-Jun-24 14:33N 37°29' W 000°36'1312.6
2016-Jun-24 13:33N 37°21' W 000°48'1612.2
2016-Jun-24 12:15N 37°10' W 001°03'1012.2
2016-Jun-24 11:26N 37°04' W 001°13'1112.2
2016-Jun-24 10:33N 36°57' W 001°23'19213.4
2016-Jun-23 20:13N 36°00' W 005°11'1015.7
2016-Jun-23 19:33N 35°58' W 005°24'1716.1
2016-Jun-23 18:31N 35°53' W 005°44'1614.3
2016-Jun-23 17:23N 35°53' W 006°04'1113.5
2016-Jun-23 16:33N 35°53' W 006°18'1313.0
2016-Jun-23 15:32N 35°54' W 006°34'2613.2
2016-Jun-23 13:33N 35°56' W 007°06'1413.7
2016-Jun-23 12:32N 35°56' W 007°23'1313.6
2016-Jun-23 11:33N 35°57' W 007°40'3113.6
2016-Jun-23 09:16N 35°59' W 008°18'28413.0
2016-Jun-22 11:28N 37°25' W 013°55'17712.5
2016-Jun-21 21:21N 38°15' W 017°30'30312.7
2016-Jun-20 21:33N 39°24' W 023°48'  
Track history (hours):
 
Tides and Currents Weather Stations Pressure Air Temp Water Temp Dewpoint Dewpoint Depression Visibility Wind Speed Wind Dir Waves Ship Positions

Sloman Herakles

Last reported at 2016-Jun-30 11:27 UTC. Time now 2016-Jul-01 09:47 UTC.
Position N 39°33' W 009°57'.

Length 145 m; draft 9.6 m.

Type: Tanker. MMSI: 305851000.

Date/timePositionNaut miles runAvg speedWind from/ knotsBaromVisibWave heightAir tempDewpointWater temp
2016-Jun-30 11:27N 39°33' W 009°57'1112.1
2016-Jun-30 10:33N 39°23' W 009°57'1212.0
2016-Jun-30 09:33N 39°11' W 009°56'1312.3
2016-Jun-30 08:29N 38°58' W 009°56'1112.3
2016-Jun-30 07:33N 38°46' W 009°57'1211.8
2016-Jun-30 06:32N 38°34' W 009°54'1111.2
2016-Jun-30 05:33N 38°24' W 009°51'1111.1
2016-Jun-30 04:33N 38°13' W 009°48'1111.4
2016-Jun-30 03:33N 38°02' W 009°44'1311.6
2016-Jun-30 02:27N 37°49' W 009°41'1111.6
2016-Jun-30 01:33N 37°39' W 009°38'1211.5
2016-Jun-30 00:30N 37°27' W 009°34'1111.2
2016-Jun-29 23:29N 37°16' W 009°31'1210.8
2016-Jun-29 22:20N 37°04' W 009°28'3810.0
2016-Jun-29 18:33N 36°37' W 008°55'1311.3
2016-Jun-29 17:22N 36°34' W 008°39'1011.6
2016-Jun-29 16:32N 36°31' W 008°27'14712.3
2016-Jun-29 04:33N 35°60' W 005°28'8 8.5
2016-Jun-29 03:33N 36°07' W 005°24'2 1.6
2016-Jun-29 02:24N 36°09' W 005°22'0 0.0
2016-Jun-29 01:30N 36°09' W 005°22'0 0.0
2016-Jun-29 00:33N 36°09' W 005°22'0 0.0
2016-Jun-28 23:33N 36°09' W 005°22'0 0.0
2016-Jun-28 22:27N 36°09' W 005°22'0 0.0
2016-Jun-28 21:33N 36°09' W 005°22'0 0.1
2016-Jun-28 19:30N 36°09' W 005°22'0 0.1
2016-Jun-28 18:25N 36°09' W 005°22'4 4.3
2016-Jun-28 17:33N 36°05' W 005°21'5 5.0
2016-Jun-28 16:33N 36°05' W 005°15'21311.9
2016-Jun-27 22:34N 37°13' W 001°02'1313.0
2016-Jun-27 21:33N 37°22' W 000°50'1612.8
2016-Jun-27 20:20N 37°33' W 000°36'1012.5
2016-Jun-27 19:33N 37°40' W 000°28'1212.0
2016-Jun-27 18:33N 37°50' W 000°20'1212.1
2016-Jun-27 17:33N 38°01' W 000°12'1212.3
2016-Jun-27 16:33N 38°11' W 000°03'1212.3
2016-Jun-27 15:33N 38°21' E 000°06'9112.6
2016-Jun-27 08:21N 39°42' E 000°60'1113.1
2016-Jun-27 07:32N 39°51' E 001°06'1313.2
2016-Jun-27 06:33N 40°03' E 001°13'1313.5
2016-Jun-27 05:33N 40°15' E 001°21'1413.4
2016-Jun-27 04:32N 40°28' E 001°28'1313.0
2016-Jun-27 03:33N 40°40' E 001°33'30 0.7
2016-Jun-25 11:08N 41°05' E 001°12'2 2.3
2016-Jun-25 10:28N 41°04' E 001°13'1011.2
2016-Jun-25 09:32N 40°56' E 001°21'1211.8
2016-Jun-25 08:33N 40°47' E 001°31'1110.9
2016-Jun-25 07:33N 40°36' E 001°33'1212.5
2016-Jun-25 06:33N 40°24' E 001°27'1212.2
2016-Jun-25 05:33N 40°13' E 001°20'1212.3
2016-Jun-25 04:34N 40°02' E 001°14'1212.0
2016-Jun-25 03:32N 39°51' E 001°07'2512.1
2016-Jun-25 01:29N 39°28' E 000°55'1112.2
2016-Jun-25 00:33N 39°18' E 000°48'1412.4
2016-Jun-24 23:25N 39°05' E 000°41'1112.3
2016-Jun-24 22:33N 38°55' E 000°34'1312.6
2016-Jun-24 21:31N 38°43' E 000°28'1212.8
2016-Jun-24 20:33N 38°33' E 000°20'1312.8
2016-Jun-24 19:33N 38°22' E 000°11'1313.2
2016-Jun-24 18:33N 38°11' E 000°02'1312.7
2016-Jun-24 17:33N 38°01' W 000°07'1313.3
2016-Jun-24 16:34N 37°50' W 000°17'1313.0
2016-Jun-24 15:34N 37°39' W 000°26'1312.5
2016-Jun-24 14:33N 37°29' W 000°36'1312.6
2016-Jun-24 13:33N 37°21' W 000°48'1612.2
2016-Jun-24 12:15N 37°10' W 001°03'1012.2
2016-Jun-24 11:26N 37°04' W 001°13'1112.2
2016-Jun-24 10:33N 36°57' W 001°23'19213.4
2016-Jun-23 20:13N 36°00' W 005°11'1015.7
2016-Jun-23 19:33N 35°58' W 005°24'1716.1
2016-Jun-23 18:31N 35°53' W 005°44'1614.3
2016-Jun-23 17:23N 35°53' W 006°04'1113.5
2016-Jun-23 16:33N 35°53' W 006°18'1313.0
2016-Jun-23 15:32N 35°54' W 006°34'2613.2
2016-Jun-23 13:33N 35°56' W 007°06'1413.7
2016-Jun-23 12:32N 35°56' W 007°23'1313.6
2016-Jun-23 11:33N 35°57' W 007°40'3113.6
2016-Jun-23 09:16N 35°59' W 008°18'28413.0
2016-Jun-22 11:28N 37°25' W 013°55'17712.5
2016-Jun-21 21:21N 38°15' W 017°30'30312.7
2016-Jun-20 21:33N 39°24' W 023°48'  

Dump ship's entire track history